sensor_id;sensor_type;location;lat;lon;timestamp;pressure;altitude;pressure_sealevel;temperature;humidity
48204;BME280;33994;50.998;5.864;2023-04-06T00:02:56;101295.34;;;4.11;63.76
48204;BME280;33994;50.998;5.864;2023-04-06T00:05:59;101292.75;;;4.11;63.70
48204;BME280;33994;50.998;5.864;2023-04-06T00:09:02;101299.59;;;4.09;63.44
48204;BME280;33994;50.998;5.864;2023-04-06T00:12:06;101302.13;;;4.06;63.47
48204;BME280;33994;50.998;5.864;2023-04-06T00:15:10;101303.06;;;4.10;63.46
48204;BME280;33994;50.998;5.864;2023-04-06T00:18:14;101292.75;;;4.11;62.53
48204;BME280;33994;50.998;5.864;2023-04-06T00:21:18;101296.13;;;4.09;62.79
48204;BME280;33994;50.998;5.864;2023-04-06T00:27:12;101290.81;;;4.01;62.75
48204;BME280;33994;50.998;5.864;2023-04-06T00:30:15;101283.91;;;4.02;62.87
48204;BME280;33994;50.998;5.864;2023-04-06T00:33:18;101281.19;;;3.96;63.13
48204;BME280;33994;50.998;5.864;2023-04-06T00:36:22;101272.50;;;3.92;63.10
48204;BME280;33994;50.998;5.864;2023-04-06T00:39:25;101273.28;;;3.88;63.37
48204;BME280;33994;50.998;5.864;2023-04-06T00:42:30;101276.56;;;3.78;63.65
48204;BME280;33994;50.998;5.864;2023-04-06T00:45:33;101271.22;;;3.70;63.58
48204;BME280;33994;50.998;5.864;2023-04-06T00:48:36;101260.81;;;3.69;63.77
48204;BME280;33994;50.998;5.864;2023-04-06T00:51:40;101252.19;;;3.67;63.68
48204;BME280;33994;50.998;5.864;2023-04-06T00:54:43;101252.97;;;3.64;63.60
48204;BME280;33994;50.998;5.864;2023-04-06T00:57:47;101254.69;;;3.63;63.51
48204;BME280;33994;50.998;5.864;2023-04-06T01:00:51;101250.31;;;3.59;63.42
48204;BME280;33994;50.998;5.864;2023-04-06T01:03:54;101246.81;;;3.57;63.34
48204;BME280;33994;50.998;5.864;2023-04-06T01:06:58;101242.47;;;3.56;63.25
48204;BME280;33994;50.998;5.864;2023-04-06T01:10:00;101237.31;;;3.56;63.25
48204;BME280;33994;50.998;5.864;2023-04-06T01:13:05;101235.53;;;3.54;63.09
48204;BME280;33994;50.998;5.864;2023-04-06T01:16:08;101240.75;;;3.55;62.99
48204;BME280;33994;50.998;5.864;2023-04-06T01:19:12;101235.59;;;3.57;62.78
48204;BME280;33994;50.998;5.864;2023-04-06T01:22:17;101237.38;;;3.59;62.60
48204;BME280;33994;50.998;5.864;2023-04-06T01:25:20;101230.66;;;3.69;62.12
48204;BME280;33994;50.998;5.864;2023-04-06T01:28:23;101228.19;;;3.74;62.40
48204;BME280;33994;50.998;5.864;2023-04-06T01:31:26;101222.94;;;3.71;61.98
48204;BME280;33994;50.998;5.864;2023-04-06T01:34:29;101217.56;;;3.60;62.22
48204;BME280;33994;50.998;5.864;2023-04-06T01:37:33;101216.56;;;3.53;62.33
48204;BME280;33994;50.998;5.864;2023-04-06T01:40:37;101220.78;;;3.48;62.39
48204;BME280;33994;50.998;5.864;2023-04-06T01:43:39;101219.75;;;3.42;62.55
48204;BME280;33994;50.998;5.864;2023-04-06T01:46:43;101221.41;;;3.38;62.80
48204;BME280;33994;50.998;5.864;2023-04-06T01:49:46;101213.66;;;3.38;62.85
48204;BME280;33994;50.998;5.864;2023-04-06T01:52:50;101219.84;;;3.45;62.92
48204;BME280;33994;50.998;5.864;2023-04-06T01:55:54;101215.53;;;3.45;62.88
48204;BME280;33994;50.998;5.864;2023-04-06T01:58:57;101215.53;;;3.45;63.00
48204;BME280;33994;50.998;5.864;2023-04-06T02:02:00;101215.56;;;3.47;63.24
48204;BME280;33994;50.998;5.864;2023-04-06T02:05:04;101206.84;;;3.42;63.29
48204;BME280;33994;50.998;5.864;2023-04-06T02:08:08;101205.81;;;3.35;63.52
48204;BME280;33994;50.998;5.864;2023-04-06T02:11:11;101206.59;;;3.29;63.85
48204;BME280;33994;50.998;5.864;2023-04-06T02:14:14;101198.59;;;3.19;64.37
48204;BME280;33994;50.998;5.864;2023-04-06T02:17:17;101196.78;;;3.14;64.58
48204;BME280;33994;50.998;5.864;2023-04-06T02:20:20;101194.22;;;3.14;64.81
48204;BME280;33994;50.998;5.864;2023-04-06T02:23:25;101195.91;;;3.12;64.77
48204;BME280;33994;50.998;5.864;2023-04-06T02:26:28;101190.44;;;3.00;65.15
48204;BME280;33994;50.998;5.864;2023-04-06T02:29:31;101192.94;;;2.96;65.49
48204;BME280;33994;50.998;5.864;2023-04-06T02:32:34;101189.41;;;2.90;65.50
48204;BME280;33994;50.998;5.864;2023-04-06T02:35:37;101192.59;;;2.80;65.85
48204;BME280;33994;50.998;5.864;2023-04-06T02:38:42;101183.00;;;2.75;66.04
48204;BME280;33994;50.998;5.864;2023-04-06T02:41:46;101177.78;;;2.73;66.07
48204;BME280;33994;50.998;5.864;2023-04-06T02:44:49;101170.91;;;2.74;65.96
48204;BME280;33994;50.998;5.864;2023-04-06T02:47:52;101164.00;;;2.73;65.80
48204;BME280;33994;50.998;5.864;2023-04-06T02:50:55;101158.06;;;2.77;65.82
48204;BME280;33994;50.998;5.864;2023-04-06T02:53:59;101164.09;;;2.76;65.81
48204;BME280;33994;50.998;5.864;2023-04-06T02:57:03;101156.31;;;2.74;65.86
48204;BME280;33994;50.998;5.864;2023-04-06T03:00:07;101154.56;;;2.73;65.54
48204;BME280;33994;50.998;5.864;2023-04-06T03:03:10;101158.91;;;2.76;65.73
48204;BME280;33994;50.998;5.864;2023-04-06T03:06:13;101163.25;;;2.77;65.73
48204;BME280;33994;50.998;5.864;2023-04-06T03:09:18;101159.00;;;2.79;65.98
48204;BME280;33994;50.998;5.864;2023-04-06T03:12:21;101164.28;;;2.85;65.66
48204;BME280;33994;50.998;5.864;2023-04-06T03:15:24;101162.63;;;2.87;65.51
48204;BME280;33994;50.998;5.864;2023-04-06T03:18:28;101153.13;;;2.86;65.69
48204;BME280;33994;50.998;5.864;2023-04-06T03:21:31;101158.38;;;2.90;65.49
48204;BME280;33994;50.998;5.864;2023-04-06T03:24:36;101144.69;;;2.93;65.64
48204;BME280;33994;50.998;5.864;2023-04-06T03:27:39;101146.44;;;2.96;65.51
48204;BME280;33994;50.998;5.864;2023-04-06T03:30:43;101138.72;;;2.97;65.47
48204;BME280;33994;50.998;5.864;2023-04-06T03:33:46;101144.75;;;2.98;65.17
48204;BME280;33994;50.998;5.864;2023-04-06T03:36:48;101144.00;;;3.03;65.14
48204;BME280;33994;50.998;5.864;2023-04-06T03:39:53;101142.34;;;3.05;64.77
48204;BME280;33994;50.998;5.864;2023-04-06T03:42:56;101140.66;;;3.07;64.98
48204;BME280;33994;50.998;5.864;2023-04-06T03:46:00;101126.84;;;3.05;64.91
48204;BME280;33994;50.998;5.864;2023-04-06T03:49:03;101132.00;;;3.05;64.90
48204;BME280;33994;50.998;5.864;2023-04-06T03:52:06;101123.38;;;3.05;64.94
48204;BME280;33994;50.998;5.864;2023-04-06T03:55:10;101121.75;;;3.08;64.77
48204;BME280;33994;50.998;5.864;2023-04-06T03:58:13;101126.16;;;3.15;64.48
48204;BME280;33994;50.998;5.864;2023-04-06T04:01:16;101124.56;;;3.21;64.24
48204;BME280;33994;50.998;5.864;2023-04-06T04:04:19;101122.75;;;3.17;64.17
48204;BME280;33994;50.998;5.864;2023-04-06T04:07:22;101130.53;;;3.20;64.10
48204;BME280;33994;50.998;5.864;2023-04-06T04:10:27;101129.78;;;3.24;63.98
48204;BME280;33994;50.998;5.864;2023-04-06T04:13:30;101131.47;;;3.23;64.07
48204;BME280;33994;50.998;5.864;2023-04-06T04:16:33;101140.13;;;3.24;63.96
48204;BME280;33994;50.998;5.864;2023-04-06T04:19:36;101135.84;;;3.26;64.06
48204;BME280;33994;50.998;5.864;2023-04-06T04:22:40;101144.47;;;3.25;64.07
48204;BME280;33994;50.998;5.864;2023-04-06T04:25:44;101148.84;;;3.29;64.07
48204;BME280;33994;50.998;5.864;2023-04-06T04:28:48;101142.75;;;3.27;64.06
48204;BME280;33994;50.998;5.864;2023-04-06T04:31:51;101141.03;;;3.26;64.04
48204;BME280;33994;50.998;5.864;2023-04-06T04:34:54;101144.59;;;3.32;64.06
48204;BME280;33994;50.998;5.864;2023-04-06T04:37:57;101148.06;;;3.34;63.79
48204;BME280;33994;50.998;5.864;2023-04-06T04:41:02;101141.16;;;3.32;63.67
48204;BME280;33994;50.998;5.864;2023-04-06T04:44:05;101142.03;;;3.34;63.29
48204;BME280;33994;50.998;5.864;2023-04-06T04:47:08;101135.97;;;3.32;63.19
48204;BME280;33994;50.998;5.864;2023-04-06T04:50:11;101139.47;;;3.34;63.22
48204;BME280;33994;50.998;5.864;2023-04-06T04:53:14;101136.09;;;3.38;63.20
48204;BME280;33994;50.998;5.864;2023-04-06T04:56:18;101138.66;;;3.38;63.14
48204;BME280;33994;50.998;5.864;2023-04-06T04:59:21;101130.19;;;3.44;63.15
48204;BME280;33994;50.998;5.864;2023-04-06T05:02:24;101139.66;;;3.43;63.19
48204;BME280;33994;50.998;5.864;2023-04-06T05:05:27;101129.31;;;3.43;63.15
48204;BME280;33994;50.998;5.864;2023-04-06T05:08:30;101134.50;;;3.45;63.15
48204;BME280;33994;50.998;5.864;2023-04-06T05:11:36;101130.25;;;3.47;63.07
48204;BME280;33994;50.998;5.864;2023-04-06T05:14:39;101137.22;;;3.51;62.93
48204;BME280;33994;50.998;5.864;2023-04-06T05:17:43;101127.75;;;3.51;62.94
48204;BME280;33994;50.998;5.864;2023-04-06T05:20:47;101132.97;;;3.56;62.85
48204;BME280;33994;50.998;5.864;2023-04-06T05:23:50;101140.81;;;3.60;63.12
48204;BME280;33994;50.998;5.864;2023-04-06T05:26:54;101137.44;;;3.63;63.12
48204;BME280;33994;50.998;5.864;2023-04-06T05:29:58;101132.31;;;3.66;63.04
48204;BME280;33994;50.998;5.864;2023-04-06T05:33:01;101134.06;;;3.69;63.24
48204;BME280;33994;50.998;5.864;2023-04-06T05:36:04;101133.28;;;3.73;62.97
48204;BME280;33994;50.998;5.864;2023-04-06T05:39:08;101138.50;;;3.76;63.03
48204;BME280;33994;50.998;5.864;2023-04-06T05:42:12;101138.56;;;3.79;62.98
48204;BME280;33994;50.998;5.864;2023-04-06T05:45:15;101124.78;;;3.80;62.91
48204;BME280;33994;50.998;5.864;2023-04-06T05:48:19;101124.00;;;3.84;62.90
48204;BME280;33994;50.998;5.864;2023-04-06T05:51:22;101114.63;;;3.89;62.81
48204;BME280;33994;50.998;5.864;2023-04-06T05:54:25;101121.59;;;3.95;62.63
48204;BME280;33994;50.998;5.864;2023-04-06T05:57:29;101117.47;;;4.04;62.36
48204;BME280;33994;50.998;5.864;2023-04-06T06:00:32;101113.22;;;4.09;62.10
48204;BME280;33994;50.998;5.864;2023-04-06T06:03:35;101118.50;;;4.17;62.09
48204;BME280;33994;50.998;5.864;2023-04-06T06:06:38;101117.69;;;4.20;61.88
48204;BME280;33994;50.998;5.864;2023-04-06T06:09:41;101129.91;;;4.28;62.01
48204;BME280;33994;50.998;5.864;2023-04-06T06:12:46;101116.09;;;4.29;62.04
48204;BME280;33994;50.998;5.864;2023-04-06T06:15:49;101123.06;;;4.32;62.01
48204;BME280;33994;50.998;5.864;2023-04-06T06:18:52;101117.09;;;4.36;62.17
48204;BME280;33994;50.998;5.864;2023-04-06T06:21:55;101116.34;;;4.43;62.24
48204;BME280;33994;50.998;5.864;2023-04-06T06:24:58;101110.41;;;4.50;62.21
48204;BME280;33994;50.998;5.864;2023-04-06T06:28:02;101116.50;;;4.54;62.17
48204;BME280;33994;50.998;5.864;2023-04-06T06:31:05;101113.09;;;4.58;62.36
48204;BME280;33994;50.998;5.864;2023-04-06T06:34:08;101120.97;;;4.66;62.34
48204;BME280;33994;50.998;5.864;2023-04-06T06:37:11;101113.31;;;4.73;62.33
48204;BME280;33994;50.998;5.864;2023-04-06T06:40:14;101115.97;;;4.79;62.54
48204;BME280;33994;50.998;5.864;2023-04-06T06:43:19;101115.25;;;4.90;62.66
48204;BME280;33994;50.998;5.864;2023-04-06T06:46:22;101117.13;;;5.00;62.31
48204;BME280;33994;50.998;5.864;2023-04-06T06:49:26;101112.06;;;5.07;62.57
48204;BME280;33994;50.998;5.864;2023-04-06T06:52:29;101118.19;;;5.16;62.57
48204;BME280;33994;50.998;5.864;2023-04-06T06:55:32;101115.72;;;5.28;62.29
48204;BME280;33994;50.998;5.864;2023-04-06T06:58:36;101111.53;;;5.39;62.57
48204;BME280;33994;50.998;5.864;2023-04-06T07:01:40;101113.38;;;5.49;62.31
48204;BME280;33994;50.998;5.864;2023-04-06T07:04:43;101115.19;;;5.59;62.36
48204;BME280;33994;50.998;5.864;2023-04-06T07:07:46;101108.34;;;5.68;62.38
48204;BME280;33994;50.998;5.864;2023-04-06T07:10:50;101104.97;;;5.75;62.22
48204;BME280;33994;50.998;5.864;2023-04-06T07:13:55;101110.19;;;5.76;61.88
48204;BME280;33994;50.998;5.864;2023-04-06T07:16:59;101105.94;;;5.84;61.69
48204;BME280;33994;50.998;5.864;2023-04-06T07:20:03;101108.59;;;5.92;61.72
48204;BME280;33994;50.998;5.864;2023-04-06T07:23:06;101111.25;;;5.98;62.01
48204;BME280;33994;50.998;5.864;2023-04-06T07:26:10;101106.97;;;6.03;61.66
48204;BME280;33994;50.998;5.864;2023-04-06T07:29:15;101107.88;;;6.10;62.11
48204;BME280;33994;50.998;5.864;2023-04-06T07:32:18;101107.91;;;6.16;61.60
48204;BME280;33994;50.998;5.864;2023-04-06T07:35:21;101110.56;;;6.24;61.77
48204;BME280;33994;50.998;5.864;2023-04-06T07:38:25;101103.69;;;6.29;61.82
48204;BME280;33994;50.998;5.864;2023-04-06T07:41:28;101104.56;;;6.32;61.94
48204;BME280;33994;50.998;5.864;2023-04-06T07:44:33;101102.84;;;6.36;61.99
48204;BME280;33994;50.998;5.864;2023-04-06T07:47:36;101095.13;;;6.42;62.20
48204;BME280;33994;50.998;5.864;2023-04-06T07:50:39;101099.50;;;6.49;62.03
48204;BME280;33994;50.998;5.864;2023-04-06T07:53:43;101091.75;;;6.55;62.28
48204;BME280;33994;50.998;5.864;2023-04-06T07:56:46;101081.38;;;6.62;62.03
48204;BME280;33994;50.998;5.864;2023-04-06T07:59:51;101088.38;;;6.72;62.24
48204;BME280;33994;50.998;5.864;2023-04-06T08:02:54;101090.13;;;6.82;61.95
48204;BME280;33994;50.998;5.864;2023-04-06T08:05:57;101095.38;;;6.93;61.69
48204;BME280;33994;50.998;5.864;2023-04-06T08:09:00;101095.44;;;7.05;61.38
48204;BME280;33994;50.998;5.864;2023-04-06T08:12:03;101097.22;;;7.17;61.02
48204;BME280;33994;50.998;5.864;2023-04-06T08:15:08;101103.31;;;7.31;60.65
48204;BME280;33994;50.998;5.864;2023-04-06T08:18:11;101097.34;;;7.44;60.42
48204;BME280;33994;50.998;5.864;2023-04-06T08:21:14;101095.63;;;7.59;60.23
48204;BME280;33994;50.998;5.864;2023-04-06T08:24:17;101104.31;;;7.68;60.05
48204;BME280;33994;50.998;5.864;2023-04-06T08:27:21;101096.50;;;7.79;59.42
48204;BME280;33994;50.998;5.864;2023-04-06T08:30:25;101094.78;;;7.83;58.95
48204;BME280;33994;50.998;5.864;2023-04-06T08:33:28;101106.91;;;7.93;58.56
48204;BME280;33994;50.998;5.864;2023-04-06T08:36:32;101098.25;;;8.00;58.53
48204;BME280;33994;50.998;5.864;2023-04-06T08:39:35;101101.72;;;8.07;58.08
48204;BME280;33994;50.998;5.864;2023-04-06T08:42:40;101106.09;;;8.12;57.59
48204;BME280;33994;50.998;5.864;2023-04-06T08:45:45;101099.09;;;8.19;57.12
48204;BME280;33994;50.998;5.864;2023-04-06T08:48:49;101106.94;;;8.25;56.91
48204;BME280;33994;50.998;5.864;2023-04-06T08:51:53;101105.19;;;8.27;56.88
48204;BME280;33994;50.998;5.864;2023-04-06T08:54:57;101099.97;;;8.30;56.71
48204;BME280;33994;50.998;5.864;2023-04-06T08:58:00;101106.06;;;8.32;56.58
48204;BME280;33994;50.998;5.864;2023-04-06T09:01:07;101109.53;;;8.37;56.26
48204;BME280;33994;50.998;5.864;2023-04-06T09:04:11;101117.34;;;8.43;56.73
48204;BME280;33994;50.998;5.864;2023-04-06T09:07:15;101109.53;;;8.46;56.53
48204;BME280;33994;50.998;5.864;2023-04-06T09:10:18;101114.69;;;8.49;56.62
48204;BME280;33994;50.998;5.864;2023-04-06T09:13:22;101106.88;;;8.56;56.61
48204;BME280;33994;50.998;5.864;2023-04-06T09:16:26;101125.13;;;8.60;56.60
48204;BME280;33994;50.998;5.864;2023-04-06T09:19:30;101123.38;;;8.64;56.60
48204;BME280;33994;50.998;5.864;2023-04-06T09:22:36;101117.28;;;8.66;56.47
48204;BME280;33994;50.998;5.864;2023-04-06T09:25:40;101116.41;;;8.70;56.63
48204;BME280;33994;50.998;5.864;2023-04-06T09:28:44;101118.16;;;8.70;56.65
48204;BME280;33994;50.998;5.864;2023-04-06T09:31:49;101112.03;;;8.72;56.55
48204;BME280;33994;50.998;5.864;2023-04-06T09:34:52;101102.47;;;8.76;56.54
48204;BME280;33994;50.998;5.864;2023-04-06T09:37:56;101105.94;;;8.83;56.43
48204;BME280;33994;50.998;5.864;2023-04-06T09:40:59;101105.94;;;8.86;56.49
48204;BME280;33994;50.998;5.864;2023-04-06T09:44:03;101108.53;;;8.89;56.55
48204;BME280;33994;50.998;5.864;2023-04-06T09:47:08;101107.63;;;8.94;56.64
48204;BME280;33994;50.998;5.864;2023-04-06T09:50:13;101113.69;;;9.01;56.75
48204;BME280;33994;50.998;5.864;2023-04-06T09:53:17;101118.88;;;9.07;56.56
48204;BME280;33994;50.998;5.864;2023-04-06T09:56:24;101105.84;;;9.12;56.63
48204;BME280;33994;50.998;5.864;2023-04-06T09:59:38;101122.31;;;9.18;56.70
48204;BME280;33994;50.998;5.864;2023-04-06T10:02:49;101117.09;;;9.23;56.73
48204;BME280;33994;50.998;5.864;2023-04-06T10:05:55;101112.75;;;9.27;56.85
48204;BME280;33994;50.998;5.864;2023-04-06T10:09:01;101125.78;;;9.31;56.92
48204;BME280;33994;50.998;5.864;2023-04-06T10:12:05;101116.19;;;9.36;57.02
48204;BME280;33994;50.998;5.864;2023-04-06T10:15:10;101122.25;;;9.40;56.88
48204;BME280;33994;50.998;5.864;2023-04-06T10:18:15;101116.16;;;9.42;56.89
48204;BME280;33994;50.998;5.864;2023-04-06T10:21:20;101116.16;;;9.45;56.89
48204;BME280;33994;50.998;5.864;2023-04-06T10:24:24;101123.09;;;9.46;56.84
48204;BME280;33994;50.998;5.864;2023-04-06T10:27:28;101121.31;;;9.52;56.99
48204;BME280;33994;50.998;5.864;2023-04-06T10:30:32;101122.19;;;9.51;57.06
48204;BME280;33994;50.998;5.864;2023-04-06T10:33:36;101121.31;;;9.53;57.12
48204;BME280;33994;50.998;5.864;2023-04-06T10:36:40;101126.53;;;9.55;57.47
48204;BME280;33994;50.998;5.864;2023-04-06T10:39:46;101121.28;;;9.58;57.68
48204;BME280;33994;50.998;5.864;2023-04-06T10:42:49;101122.13;;;9.61;57.75
48204;BME280;33994;50.998;5.864;2023-04-06T10:45:55;101127.38;;;9.61;58.13
48204;BME280;33994;50.998;5.864;2023-04-06T10:49:09;101125.66;;;9.57;59.07
48204;BME280;33994;50.998;5.864;2023-04-06T10:52:13;101123.88;;;9.56;59.09
48204;BME280;33994;50.998;5.864;2023-04-06T10:55:19;101125.66;;;9.53;59.61
48204;BME280;33994;50.998;5.864;2023-04-06T10:58:24;101114.38;;;9.51;60.17
48204;BME280;33994;50.998;5.864;2023-04-06T11:01:28;101123.97;;;9.47;60.39
48204;BME280;33994;50.998;5.864;2023-04-06T11:04:32;101114.41;;;9.46;61.00
48204;BME280;33994;50.998;5.864;2023-04-06T11:07:36;101121.31;;;9.48;61.60
48204;BME280;33994;50.998;5.864;2023-04-06T11:10:39;101116.97;;;9.51;62.47
48204;BME280;33994;50.998;5.864;2023-04-06T11:13:43;101116.09;;;9.52;63.09
48204;BME280;33994;50.998;5.864;2023-04-06T11:16:47;101116.97;;;9.49;63.87
48204;BME280;33994;50.998;5.864;2023-04-06T11:19:52;101115.25;;;9.45;64.21
48204;BME280;33994;50.998;5.864;2023-04-06T11:22:55;101124.81;;;9.44;64.64
48204;BME280;33994;50.998;5.864;2023-04-06T11:25:58;101120.50;;;9.42;65.27
48204;BME280;33994;50.998;5.864;2023-04-06T11:29:01;101121.41;;;9.36;66.06
48204;BME280;33994;50.998;5.864;2023-04-06T11:32:05;101122.28;;;9.34;67.25
48204;BME280;33994;50.998;5.864;2023-04-06T11:35:21;101119.69;;;9.26;69.49
48204;BME280;33994;50.998;5.864;2023-04-06T11:38:24;101124.94;;;9.17;68.64
48204;BME280;33994;50.998;5.864;2023-04-06T11:41:27;101125.91;;;8.96;69.29
48204;BME280;33994;50.998;5.864;2023-04-06T11:44:33;101113.75;;;8.83;69.98
48204;BME280;33994;50.998;5.864;2023-04-06T11:47:36;101112.06;;;8.69;70.99
48204;BME280;33994;50.998;5.864;2023-04-06T11:50:41;101109.47;;;8.65;71.49
48204;BME280;33994;50.998;5.864;2023-04-06T11:53:44;101105.13;;;8.58;72.07
48204;BME280;33994;50.998;5.864;2023-04-06T11:56:47;101103.41;;;8.46;72.73
48204;BME280;33994;50.998;5.864;2023-04-06T11:59:51;101109.53;;;8.43;73.52
48204;BME280;33994;50.998;5.864;2023-04-06T12:02:54;101100.81;;;8.41;73.55
48204;BME280;33994;50.998;5.864;2023-04-06T12:05:59;101101.69;;;8.43;74.41
48204;BME280;33994;50.998;5.864;2023-04-06T12:09:02;101094.75;;;8.41;75.39
48204;BME280;33994;50.998;5.864;2023-04-06T12:12:06;101099.97;;;8.44;75.96
48204;BME280;33994;50.998;5.864;2023-04-06T12:15:09;101097.34;;;8.45;76.67
48204;BME280;33994;50.998;5.864;2023-04-06T12:18:12;101093.84;;;8.49;77.29
48204;BME280;33994;50.998;5.864;2023-04-06T12:21:17;101098.19;;;8.55;78.78
48204;BME280;33994;50.998;5.864;2023-04-06T12:24:20;101094.72;;;8.53;78.16
48204;BME280;33994;50.998;5.864;2023-04-06T12:27:24;101094.72;;;8.56;78.57
48204;BME280;33994;50.998;5.864;2023-04-06T12:30:27;101092.94;;;8.61;78.63
48204;BME280;33994;50.998;5.864;2023-04-06T12:33:30;101086.03;;;8.59;78.24
48204;BME280;33994;50.998;5.864;2023-04-06T12:36:34;101082.56;;;8.50;78.76
48204;BME280;33994;50.998;5.864;2023-04-06T12:39:40;101088.63;;;8.52;79.31
48204;BME280;33994;50.998;5.864;2023-04-06T12:42:42;101080.84;;;8.54;79.05
48204;BME280;33994;50.998;5.864;2023-04-06T12:45:45;101085.16;;;8.52;79.82
48204;BME280;33994;50.998;5.864;2023-04-06T12:48:48;101070.38;;;8.52;80.09
48204;BME280;33994;50.998;5.864;2023-04-06T12:51:53;101066.06;;;8.51;80.75
48204;BME280;33994;50.998;5.864;2023-04-06T12:54:56;101075.63;;;8.48;81.24
48204;BME280;33994;50.998;5.864;2023-04-06T12:57:59;101075.63;;;8.46;81.36
48204;BME280;33994;50.998;5.864;2023-04-06T13:01:06;101066.91;;;8.52;82.37
48204;BME280;33994;50.998;5.864;2023-04-06T13:04:09;101060.84;;;8.51;81.99
48204;BME280;33994;50.998;5.864;2023-04-06T13:07:14;101057.38;;;8.54;81.79
48204;BME280;33994;50.998;5.864;2023-04-06T13:10:17;101053.88;;;8.53;81.90
48204;BME280;33994;50.998;5.864;2023-04-06T13:13:22;101045.19;;;8.55;82.08
48204;BME280;33994;50.998;5.864;2023-04-06T13:16:26;101042.56;;;8.56;81.68
48204;BME280;33994;50.998;5.864;2023-04-06T13:19:29;101041.72;;;8.52;81.09
48204;BME280;33994;50.998;5.864;2023-04-06T13:22:33;101041.72;;;8.49;80.37
48204;BME280;33994;50.998;5.864;2023-04-06T13:25:37;101041.72;;;8.49;80.09
48204;BME280;33994;50.998;5.864;2023-04-06T13:28:40;101041.72;;;8.52;80.24
48204;BME280;33994;50.998;5.864;2023-04-06T13:31:43;101042.56;;;8.58;80.22
48204;BME280;33994;50.998;5.864;2023-04-06T13:34:47;101033.88;;;8.52;80.26
48204;BME280;33994;50.998;5.864;2023-04-06T13:37:51;101028.69;;;8.48;80.66
48204;BME280;33994;50.998;5.864;2023-04-06T13:40:55;101027.84;;;8.44;80.95
48204;BME280;33994;50.998;5.864;2023-04-06T13:43:58;101027.84;;;8.44;81.44
48204;BME280;33994;50.998;5.864;2023-04-06T13:47:01;101020.91;;;8.40;82.12
48204;BME280;33994;50.998;5.864;2023-04-06T13:50:05;101023.50;;;8.40;82.52
48204;BME280;33994;50.998;5.864;2023-04-06T13:53:09;101018.31;;;8.39;83.12
48204;BME280;33994;50.998;5.864;2023-04-06T13:56:12;101015.69;;;8.40;83.74
48204;BME280;33994;50.998;5.864;2023-04-06T13:59:15;101010.50;;;8.36;84.12
48204;BME280;33994;50.998;5.864;2023-04-06T14:02:19;101007.00;;;8.38;84.39
48204;BME280;33994;50.998;5.864;2023-04-06T14:05:22;101008.75;;;8.39;85.08
48204;BME280;33994;50.998;5.864;2023-04-06T14:08:26;100998.31;;;8.39;84.93
48204;BME280;33994;50.998;5.864;2023-04-06T14:11:29;100998.31;;;8.39;84.87
48204;BME280;33994;50.998;5.864;2023-04-06T14:14:32;100999.16;;;8.44;85.28
48204;BME280;33994;50.998;5.864;2023-04-06T14:17:35;100990.47;;;8.44;85.13
48204;BME280;33994;50.998;5.864;2023-04-06T14:20:38;100995.69;;;8.44;85.31
48204;BME280;33994;50.998;5.864;2023-04-06T14:23:42;100998.31;;;8.44;85.90
48204;BME280;33994;50.998;5.864;2023-04-06T14:26:46;100987.88;;;8.42;85.77
48204;BME280;33994;50.998;5.864;2023-04-06T14:29:49;100981.81;;;8.40;85.31
48204;BME280;33994;50.998;5.864;2023-04-06T14:32:52;100980.06;;;8.41;85.04
48204;BME280;33994;50.998;5.864;2023-04-06T14:35:56;100970.50;;;8.41;84.77
48204;BME280;33994;50.998;5.864;2023-04-06T14:39:00;100967.88;;;8.47;84.86
48204;BME280;33994;50.998;5.864;2023-04-06T14:42:04;100978.31;;;8.50;84.30
48204;BME280;33994;50.998;5.864;2023-04-06T14:45:08;100973.09;;;8.50;83.84
48204;BME280;33994;50.998;5.864;2023-04-06T14:48:12;100965.28;;;8.47;83.49
48204;BME280;33994;50.998;5.864;2023-04-06T14:51:15;100968.72;;;8.49;83.53
48204;BME280;33994;50.998;5.864;2023-04-06T14:54:19;100976.53;;;8.52;83.21
48204;BME280;33994;50.998;5.864;2023-04-06T14:57:23;100961.78;;;8.51;82.76
48204;BME280;33994;50.998;5.864;2023-04-06T15:00:26;100967.00;;;8.48;82.47
48204;BME280;33994;50.998;5.864;2023-04-06T15:03:29;100960.06;;;8.47;82.65
48204;BME280;33994;50.998;5.864;2023-04-06T15:06:32;100954.84;;;8.49;82.64
48204;BME280;33994;50.998;5.864;2023-04-06T15:09:37;100958.31;;;8.48;82.44
48204;BME280;33994;50.998;5.864;2023-04-06T15:12:40;100952.25;;;8.44;82.51
48204;BME280;33994;50.998;5.864;2023-04-06T15:15:43;100962.69;;;8.44;82.79
48204;BME280;33994;50.998;5.864;2023-04-06T15:18:47;100960.94;;;8.45;83.59
48204;BME280;33994;50.998;5.864;2023-04-06T15:21:50;100951.38;;;8.42;84.37
48204;BME280;33994;50.998;5.864;2023-04-06T15:24:54;100956.63;;;8.35;85.19
48204;BME280;33994;50.998;5.864;2023-04-06T15:27:57;100955.81;;;8.25;85.59
48204;BME280;33994;50.998;5.864;2023-04-06T15:31:00;100954.97;;;8.20;86.29
48204;BME280;33994;50.998;5.864;2023-04-06T15:34:03;100954.06;;;8.19;86.73
48204;BME280;33994;50.998;5.864;2023-04-06T15:37:07;100947.16;;;8.20;87.35
48204;BME280;33994;50.998;5.864;2023-04-06T15:40:12;100954.06;;;8.19;88.17
48204;BME280;33994;50.998;5.864;2023-04-06T15:43:16;100948.00;;;8.14;88.57
48204;BME280;33994;50.998;5.864;2023-04-06T15:46:20;100951.50;;;8.09;89.83
48204;BME280;33994;50.998;5.864;2023-04-06T15:49:23;100940.22;;;8.07;90.56
48204;BME280;33994;50.998;5.864;2023-04-06T15:52:26;100942.81;;;8.10;91.32
48204;BME280;33994;50.998;5.864;2023-04-06T15:55:31;100945.44;;;8.05;91.95
48204;BME280;33994;50.998;5.864;2023-04-06T15:58:34;100945.47;;;8.00;92.19
48204;BME280;33994;50.998;5.864;2023-04-06T16:01:38;100942.84;;;7.97;93.10
48204;BME280;33994;50.998;5.864;2023-04-06T16:04:41;100934.19;;;7.94;94.39
48204;BME280;33994;50.998;5.864;2023-04-06T16:07:43;100932.44;;;7.97;95.39
48204;BME280;33994;50.998;5.864;2023-04-06T16:10:48;100928.13;;;7.90;96.22
48204;BME280;33994;50.998;5.864;2023-04-06T16:13:51;100931.59;;;7.85;96.98
48204;BME280;33994;50.998;5.864;2023-04-06T16:16:54;100928.97;;;7.85;97.25